Tecumseh, Nebraska
Current Conditions -  °F | °C
As of 3:35 AM on Friday 24 Oct 2014 (Local Time) from KAFK Reporting Station
Haze Haze  
Wind Chill: 56°   Ceiling: Unl
Heat Index: 56°   Visibility: 3mi
Dew Point: 56°   Wind: 8mph
Humidity: 100%   Direction: 200°SSW
Pressure: 30"   Gusts: NA
Location:  40.37°N, 96.2°W
Report Text: KAFK 240835Z AUTO 20007KT 3SM BR CLR 14/14 A3000 RMK AO2 T01350135
Loading
Personal Weather Stations






























Interactive Weather Map
Tropical Storm Tracking
New forecast layout! Learn more

10-Day Weather Forecast

Advertisements
Track Severe Weather on mobile